createdAt,value
2023-04-05T00:01:15.264Z,102596.44
2023-04-05T00:03:17.950Z,102597.31
2023-04-05T00:05:20.068Z,102597.16
2023-04-05T00:07:22.679Z,102591.66
2023-04-05T00:09:26.090Z,102588.97
2023-04-05T00:11:29.125Z,102594.09
2023-04-05T00:13:31.728Z,102589.56
2023-04-05T00:15:33.281Z,102591.31
2023-04-05T00:17:34.972Z,102592.00
2023-04-05T00:19:36.797Z,102596.44
2023-04-05T00:21:39.664Z,102591.75
2023-04-05T00:23:41.448Z,102590.06
2023-04-05T00:25:45.159Z,102591.53
2023-04-05T00:27:46.710Z,102595.06
2023-04-05T00:29:48.539Z,102590.41
2023-04-05T00:31:52.030Z,102584.06
2023-04-05T00:33:54.153Z,102589.44
2023-04-05T00:35:55.813Z,102594.56
2023-04-05T00:37:57.783Z,102583.91
2023-04-05T00:40:01.197Z,102582.06
2023-04-05T00:42:05.499Z,102578.50
2023-04-05T00:44:07.331Z,102580.34
2023-04-05T00:46:09.412Z,102577.66
2023-04-05T00:48:11.855Z,102580.50
2023-04-05T00:50:14.258Z,102573.38
2023-04-05T00:52:16.211Z,102571.53
2023-04-05T00:54:18.727Z,102569.81
2023-04-05T00:56:22.361Z,102567.13
2023-04-05T00:58:25.766Z,102568.97
2023-04-05T01:00:28.422Z,102560.00
2023-04-05T01:02:33.259Z,102561.72
2023-04-05T01:04:37.197Z,102565.41
2023-04-05T01:06:59.924Z,102566.16
2023-04-05T01:09:07.909Z,102570.94
2023-04-05T01:11:10.399Z,102559.56
2023-04-05T01:13:12.003Z,102565.81
2023-04-05T01:15:15.016Z,102567.63
2023-04-05T01:17:17.288Z,102558.81
2023-04-05T01:19:19.662Z,102566.28
2023-04-05T01:21:44.597Z,102561.91
2023-04-05T01:23:59.156Z,102561.03
2023-04-05T01:26:22.523Z,102561.91
2023-04-05T01:28:44.614Z,102564.59
2023-04-05T01:30:52.324Z,102561.91
2023-04-05T01:33:08.969Z,102569.13
2023-04-05T01:35:18.211Z,102568.13
2023-04-05T01:37:26.143Z,102567.28
2023-04-05T01:39:29.201Z,102566.44
2023-04-05T01:41:30.955Z,102560.91
2023-04-05T01:43:32.584Z,102565.22
2023-04-05T01:45:34.592Z,102558.81
2023-04-05T01:47:37.543Z,102564.19
2023-04-05T01:49:39.198Z,102567.63
2023-04-05T01:51:41.052Z,102567.50
2023-04-05T01:53:42.721Z,102568.25
2023-04-05T01:55:44.454Z,102558.31
2023-04-05T01:57:46.314Z,102562.72
2023-04-05T01:59:48.189Z,102561.72
2023-04-05T02:01:51.530Z,102559.91
2023-04-05T02:03:54.744Z,102557.19
2023-04-05T02:05:57.770Z,102565.19
2023-04-05T02:08:00.000Z,102556.22
2023-04-05T02:10:01.752Z,102561.63
2023-04-05T02:12:03.899Z,102558.78
2023-04-05T02:14:05.590Z,102560.50
2023-04-05T02:16:07.236Z,102555.97
2023-04-05T02:18:09.105Z,102547.88
2023-04-05T02:20:13.510Z,102551.44
2023-04-05T02:22:15.142Z,102553.16
2023-04-05T02:24:17.001Z,102553.28
2023-04-05T02:26:19.017Z,102546.03
2023-04-05T02:28:20.710Z,102556.81
2023-04-05T02:30:22.265Z,102542.50
2023-04-05T02:32:24.788Z,102543.34
2023-04-05T02:34:26.431Z,102552.28
2023-04-05T02:36:29.848Z,102555.97
2023-04-05T02:38:31.664Z,102548.84
2023-04-05T02:40:33.383Z,102551.56
2023-04-05T02:42:35.005Z,102552.53
2023-04-05T02:44:37.255Z,102545.44
2023-04-05T02:46:39.155Z,102537.34
2023-04-05T02:48:41.003Z,102537.34
2023-04-05T02:50:43.128Z,102537.47
2023-04-05T02:52:46.626Z,102536.59
2023-04-05T02:54:48.231Z,102543.00
2023-04-05T02:56:50.022Z,102533.31
2023-04-05T02:58:51.833Z,102535.16
2023-04-05T03:00:53.779Z,102540.69
2023-04-05T03:02:55.725Z,102537.25
2023-04-05T03:04:57.394Z,102539.22
2023-04-05T03:07:00.531Z,102546.56
2023-04-05T03:09:06.360Z,102540.44
2023-04-05T03:11:09.420Z,102540.56
2023-04-05T03:13:10.973Z,102538.13
2023-04-05T03:15:12.788Z,102532.13
2023-04-05T03:17:14.673Z,102537.53
2023-04-05T03:19:16.741Z,102545.59
2023-04-05T03:21:18.608Z,102550.28
2023-04-05T03:23:20.194Z,102540.59
2023-04-05T03:25:23.252Z,102539.75
2023-04-05T03:27:25.696Z,102544.28
2023-04-05T03:29:27.515Z,102544.28
2023-04-05T03:31:29.438Z,102541.44
2023-04-05T03:33:31.362Z,102547.59
2023-04-05T03:35:32.948Z,102544.91
2023-04-05T03:37:34.912Z,102542.19
2023-04-05T03:39:36.617Z,102535.09
2023-04-05T03:41:40.850Z,102534.22
2023-04-05T03:43:42.442Z,102533.38
2023-04-05T03:45:44.244Z,102521.72
2023-04-05T03:47:46.229Z,102525.16
2023-04-05T03:49:48.095Z,102521.63
2023-04-05T03:51:49.872Z,102521.50
2023-04-05T03:53:52.073Z,102527.72
2023-04-05T03:55:53.989Z,102525.88
2023-04-05T03:57:57.165Z,102521.34
2023-04-05T03:59:59.088Z,102516.81
2023-04-05T04:02:00.988Z,102523.06
2023-04-05T04:04:02.839Z,102527.59
2023-04-05T04:06:05.690Z,102524.19
2023-04-05T04:08:07.881Z,102522.59
2023-04-05T04:10:13.526Z,102530.81
2023-04-05T04:12:15.153Z,102529.09
2023-04-05T04:14:18.421Z,102529.09
2023-04-05T04:16:20.327Z,102534.47
2023-04-05T04:18:21.928Z,102533.50
2023-04-05T04:20:23.485Z,102537.06
2023-04-05T04:22:26.557Z,102534.22
2023-04-05T04:24:28.572Z,102527.97
2023-04-05T04:26:32.566Z,102530.66
2023-04-05T04:28:34.171Z,102526.13
2023-04-05T04:30:37.711Z,102527.97
2023-04-05T04:32:40.248Z,102531.78
2023-04-05T04:34:42.124Z,102532.91
2023-04-05T04:36:43.746Z,102530.31
2023-04-05T04:38:45.357Z,102531.28
2023-04-05T04:40:47.194Z,102536.81
2023-04-05T04:42:49.314Z,102538.78
2023-04-05T04:44:50.990Z,102538.06
2023-04-05T04:46:54.048Z,102533.63
2023-04-05T04:48:56.011Z,102533.63
2023-04-05T04:50:57.667Z,102532.66
2023-04-05T04:53:00.492Z,102541.47
2023-04-05T04:55:02.395Z,102537.81
2023-04-05T04:57:04.357Z,102539.63
2023-04-05T04:59:05.973Z,102541.34
2023-04-05T05:01:08.452Z,102545.88
2023-04-05T05:03:12.354Z,102548.47
2023-04-05T05:05:14.475Z,102546.59
2023-04-05T05:07:16.306Z,102548.31
2023-04-05T05:09:18.263Z,102542.06
2023-04-05T05:11:20.357Z,102553.72
2023-04-05T05:13:21.969Z,102548.47
2023-04-05T05:15:23.829Z,102553.84
2023-04-05T05:17:25.618Z,102551.16
2023-04-05T05:19:29.070Z,102553.97
2023-04-05T05:21:30.884Z,102558.63
2023-04-05T05:23:32.647Z,102556.16
2023-04-05T05:25:34.659Z,102551.91
2023-04-05T05:27:36.528Z,102554.69
2023-04-05T05:29:38.098Z,102559.38
2023-04-05T05:31:40.212Z,102554.84
2023-04-05T05:33:41.828Z,102553.97
2023-04-05T05:35:49.496Z,102553.88
2023-04-05T05:37:51.105Z,102565.47
2023-04-05T05:39:52.858Z,102560.94
2023-04-05T05:41:54.669Z,102555.56
2023-04-05T05:43:56.518Z,102553.72
2023-04-05T05:46:00.773Z,102560.84
2023-04-05T05:48:02.674Z,102562.66
2023-04-05T05:50:05.199Z,102553.88
2023-04-05T05:52:08.298Z,102553.00
2023-04-05T05:54:10.122Z,102559.38
2023-04-05T05:56:11.698Z,102554.84
2023-04-05T05:58:13.286Z,102554.84
2023-04-05T06:00:16.496Z,102559.25
2023-04-05T06:02:18.082Z,102553.97
2023-04-05T06:04:19.852Z,102556.78
2023-04-05T06:06:23.086Z,102554.22
2023-04-05T06:08:27.210Z,102551.53
2023-04-05T06:10:30.628Z,102549.97
2023-04-05T06:12:32.398Z,102549.97
2023-04-05T06:14:33.974Z,102551.78
2023-04-05T06:16:35.841Z,102540.16
2023-04-05T06:18:37.359Z,102548.34
2023-04-05T06:20:39.556Z,102543.81
2023-04-05T06:22:42.127Z,102542.72
2023-04-05T06:24:45.391Z,102541.72
2023-04-05T06:26:47.235Z,102545.19
2023-04-05T06:28:49.522Z,102539.66
2023-04-05T06:30:51.090Z,102539.41
2023-04-05T06:32:53.319Z,102534.75
2023-04-05T06:34:55.174Z,102539.03
2023-04-05T06:36:57.064Z,102537.09
2023-04-05T06:38:58.740Z,102528.75
2023-04-05T06:41:02.046Z,102527.63
2023-04-05T06:43:03.594Z,102525.69
2023-04-05T06:45:06.522Z,102524.81
2023-04-05T06:47:08.140Z,102531.78
2023-04-05T06:49:09.745Z,102525.44
2023-04-05T06:51:11.461Z,102531.53
2023-04-05T06:53:13.781Z,102534.13
2023-04-05T06:55:15.857Z,102528.72
2023-04-05T06:57:19.284Z,102530.31
2023-04-05T06:59:20.932Z,102532.75
2023-04-05T07:01:22.539Z,102524.53
2023-04-05T07:03:24.332Z,102527.09
2023-04-05T07:05:25.900Z,102529.56
2023-04-05T07:07:27.888Z,102524.88
2023-04-05T07:09:30.925Z,102524.63
2023-04-05T07:11:32.501Z,102527.06
2023-04-05T07:13:35.546Z,102528.53
2023-04-05T07:15:37.412Z,102523.72
2023-04-05T07:17:39.124Z,102523.63
2023-04-05T07:19:40.772Z,102521.63
2023-04-05T07:21:42.804Z,102521.41
2023-04-05T07:23:45.137Z,102522.13
2023-04-05T07:25:47.092Z,102518.28
2023-04-05T07:27:48.846Z,102519.03
2023-04-05T07:29:51.753Z,102510.69
2023-04-05T07:31:53.624Z,102513.13
2023-04-05T07:33:55.236Z,102515.69
2023-04-05T07:35:57.161Z,102517.28
2023-04-05T07:37:58.960Z,102509.94
2023-04-05T07:40:00.800Z,102516.91
2023-04-05T07:42:02.607Z,102517.75
2023-04-05T07:44:04.393Z,102511.13
2023-04-05T07:46:07.698Z,102515.38
2023-04-05T07:48:09.365Z,102508.00
2023-04-05T07:50:11.603Z,102511.44
2023-04-05T07:52:13.622Z,102504.06
2023-04-05T07:54:15.449Z,102514.72
2023-04-05T07:56:17.510Z,102512.75
2023-04-05T07:58:19.651Z,102513.59
2023-04-05T08:00:22.229Z,102521.44
2023-04-05T08:02:25.898Z,102516.78
2023-04-05T08:04:27.490Z,102508.53
2023-04-05T08:06:29.140Z,102506.56
2023-04-05T08:08:31.126Z,102507.28
2023-04-05T08:10:33.723Z,102511.59
2023-04-05T08:12:37.037Z,102509.47
2023-04-05T08:14:40.384Z,102513.63
2023-04-05T08:16:43.199Z,102510.66
2023-04-05T08:18:46.202Z,102511.25
2023-04-05T08:20:51.341Z,102506.44
2023-04-05T08:22:52.952Z,102512.44
2023-04-05T08:24:54.815Z,102506.75
2023-04-05T08:26:56.455Z,102506.34
2023-04-05T08:28:57.967Z,102507.81
2023-04-05T08:30:59.758Z,102510.94
2023-04-05T08:33:01.612Z,102506.00
2023-04-05T08:35:05.391Z,102505.59
2023-04-05T08:37:07.109Z,102502.63
2023-04-05T08:39:10.151Z,102499.53
2023-04-05T08:41:17.345Z,102503.72
2023-04-05T08:43:25.869Z,102497.88
2023-04-05T08:45:27.718Z,102492.06
2023-04-05T08:47:30.028Z,102489.81
2023-04-05T08:49:31.947Z,102487.41
2023-04-05T08:51:37.223Z,102483.16
2023-04-05T08:53:38.848Z,102486.91
2023-04-05T08:55:41.276Z,102483.50
2023-04-05T08:59:57.822Z,102487.25
2023-04-05T09:02:01.678Z,102477.28
2023-04-05T09:04:07.737Z,102483.69
2023-04-05T09:06:12.814Z,102481.41
2023-04-05T09:08:17.226Z,102479.84
2023-04-05T09:10:21.020Z,102469.16
2023-04-05T09:12:23.384Z,102461.19
2023-04-05T09:14:26.525Z,102468.59
2023-04-05T09:16:29.867Z,102476.69
2023-04-05T09:18:31.751Z,102474.53
2023-04-05T09:20:33.435Z,102470.25
2023-04-05T09:22:44.070Z,102476.47
2023-04-05T09:24:47.418Z,102465.78
2023-04-05T09:27:04.099Z,102473.72
2023-04-05T09:29:05.884Z,102469.41
2023-04-05T09:31:07.770Z,102469.41
2023-04-05T09:33:09.407Z,102470.50
2023-04-05T09:35:19.249Z,102473.16
2023-04-05T09:37:22.792Z,102469.00
2023-04-05T09:39:29.311Z,102468.22
2023-04-05T09:41:32.761Z,102468.19
2023-04-05T09:43:39.311Z,102471.72
2023-04-05T09:45:42.454Z,102469.25
2023-04-05T09:47:54.673Z,102465.47
2023-04-05T09:49:57.645Z,102465.88
2023-04-05T09:51:59.488Z,102466.94
2023-04-05T09:54:05.838Z,102463.09
2023-04-05T09:56:10.076Z,102468.03
2023-04-05T09:58:19.003Z,102462.28
2023-04-05T10:00:23.132Z,102462.88
2023-04-05T10:02:26.120Z,102454.94
2023-04-05T10:04:38.835Z,102461.28
2023-04-05T10:06:42.023Z,102453.69
2023-04-05T10:08:44.769Z,102457.78
2023-04-05T10:10:48.029Z,102451.03
2023-04-05T10:12:50.905Z,102457.00
2023-04-05T10:14:54.107Z,102449.25
2023-04-05T10:17:04.048Z,102449.63
2023-04-05T10:19:11.876Z,102449.13
2023-04-05T10:21:21.054Z,102450.72
2023-04-05T10:23:28.032Z,102458.34
2023-04-05T10:25:44.189Z,102458.22
2023-04-05T10:27:48.710Z,102452.78
2023-04-05T10:30:04.727Z,102448.03
2023-04-05T10:32:14.016Z,102457.03
2023-04-05T10:34:24.837Z,102455.88
2023-04-05T10:36:39.402Z,102445.56
2023-04-05T10:38:51.721Z,102445.38
2023-04-05T10:40:58.294Z,102446.09
2023-04-05T10:43:00.196Z,102436.22
2023-04-05T10:45:06.946Z,102437.75
2023-04-05T10:47:14.310Z,102442.03
2023-04-05T10:49:22.163Z,102440.00
2023-04-05T10:51:25.249Z,102438.66
2023-04-05T10:53:27.633Z,102429.31
2023-04-05T10:55:30.364Z,102424.59
2023-04-05T10:57:33.035Z,102428.00
2023-04-05T10:59:36.467Z,102432.28
2023-04-05T11:01:39.924Z,102431.78
2023-04-05T11:03:42.611Z,102427.72
2023-04-05T11:05:44.210Z,102425.53
2023-04-05T11:07:48.046Z,102430.81
2023-04-05T11:09:53.315Z,102426.91
2023-04-05T11:11:55.166Z,102428.63
2023-04-05T11:13:58.444Z,102424.19
2023-04-05T11:16:08.994Z,102425.91
2023-04-05T11:18:20.687Z,102424.66
2023-04-05T11:20:22.710Z,102430.44
2023-04-05T11:22:29.973Z,102429.06
2023-04-05T11:24:50.972Z,102429.38
2023-04-05T11:26:54.582Z,102430.91
2023-04-05T11:28:57.973Z,102424.94
2023-04-05T11:31:13.793Z,102431.38
2023-04-05T11:33:56.657Z,102429.13
2023-04-05T11:36:04.275Z,102427.91
2023-04-05T11:38:07.379Z,102429.25
2023-04-05T11:40:25.188Z,102426.16
2023-04-05T11:42:27.214Z,102431.06
2023-04-05T11:44:30.043Z,102427.94
2023-04-05T11:46:32.432Z,102426.41
2023-04-05T11:48:34.310Z,102420.59
2023-04-05T11:50:37.393Z,102421.78
2023-04-05T11:52:40.959Z,102421.09
2023-04-05T11:54:43.412Z,102414.81
2023-04-05T11:56:51.285Z,102421.09
2023-04-05T11:58:57.896Z,102426.53
2023-04-05T12:01:01.727Z,102413.81
2023-04-05T12:03:03.865Z,102414.09
2023-04-05T12:05:06.561Z,102409.38
2023-04-05T12:07:09.348Z,102413.81
2023-04-05T12:09:12.835Z,102404.47
2023-04-05T12:11:14.701Z,102404.00
2023-04-05T12:13:25.762Z,102398.31
2023-04-05T12:15:27.415Z,102399.91
2023-04-05T12:17:42.591Z,102394.38
2023-04-05T12:19:44.590Z,102390.84
2023-04-05T12:21:46.747Z,102391.25
2023-04-05T12:23:50.386Z,102386.69
2023-04-05T12:25:55.945Z,102384.53
2023-04-05T12:28:04.556Z,102388.66
2023-04-05T12:30:15.212Z,102385.13
2023-04-05T12:32:17.211Z,102385.66
2023-04-05T12:34:24.645Z,102382.75
2023-04-05T12:36:27.864Z,102383.75
2023-04-05T12:38:30.073Z,102381.22
2023-04-05T12:40:33.868Z,102375.59
2023-04-05T12:42:38.069Z,102375.59
2023-04-05T12:44:40.099Z,102379.03
2023-04-05T12:46:42.927Z,102381.75
2023-04-05T12:48:51.636Z,102383.44
2023-04-05T12:50:53.557Z,102372.56
2023-04-05T12:52:56.977Z,102375.44
2023-04-05T12:54:59.108Z,102375.09
2023-04-05T12:57:02.408Z,102368.66
2023-04-05T12:59:07.260Z,102365.25
2023-04-05T13:01:09.097Z,102371.06
2023-04-05T13:03:16.182Z,102361.34
2023-04-05T13:05:18.103Z,102370.38
2023-04-05T13:07:20.007Z,102368.84
2023-04-05T13:09:21.736Z,102364.75
2023-04-05T13:11:24.252Z,102357.25
2023-04-05T13:13:25.899Z,102348.44
2023-04-05T13:15:29.177Z,102347.56
2023-04-05T13:17:31.201Z,102348.50
2023-04-05T13:19:33.058Z,102347.13
2023-04-05T13:21:34.841Z,102340.78
2023-04-05T13:23:37.678Z,102336.66
2023-04-05T13:25:39.816Z,102343.47
2023-04-05T13:27:41.609Z,102340.25
2023-04-05T13:29:43.553Z,102334.44
2023-04-05T13:31:46.784Z,102341.59
2023-04-05T13:33:48.392Z,102333.59
2023-04-05T13:35:50.261Z,102339.19
2023-04-05T13:37:52.387Z,102333.94
2023-04-05T13:39:54.259Z,102334.09
2023-04-05T13:41:56.265Z,102333.44
2023-04-05T13:43:59.764Z,102333.59
2023-04-05T13:46:03.105Z,102331.91
2023-04-05T13:48:06.581Z,102328.69
2023-04-05T13:50:09.303Z,102332.47
2023-04-05T13:52:11.338Z,102332.47
2023-04-05T13:54:13.200Z,102327.84
2023-04-05T13:56:14.968Z,102329.38
2023-04-05T13:58:17.118Z,102319.97
2023-04-05T14:00:19.423Z,102325.94
2023-04-05T14:02:22.931Z,102321.16
2023-04-05T14:04:26.365Z,102326.25
2023-04-05T14:06:28.218Z,102316.88
2023-04-05T14:08:30.288Z,102316.69
2023-04-05T14:10:32.076Z,102317.34
2023-04-05T14:12:33.917Z,102321.63
2023-04-05T14:14:35.446Z,102325.00
2023-04-05T14:16:37.303Z,102311.91
2023-04-05T14:18:39.179Z,102307.31
2023-04-05T14:20:42.968Z,102306.41
2023-04-05T14:22:44.712Z,102306.03
2023-04-05T14:24:46.351Z,102301.25
2023-04-05T14:26:48.205Z,102302.06
2023-04-05T14:28:49.856Z,102299.44
2023-04-05T14:30:51.951Z,102294.69
2023-04-05T14:32:53.589Z,102293.09
2023-04-05T14:34:55.424Z,102287.78
2023-04-05T14:36:58.502Z,102287.03
2023-04-05T14:39:00.435Z,102282.53
2023-04-05T14:41:03.765Z,102282.84
2023-04-05T14:43:05.438Z,102288.41
2023-04-05T14:45:08.929Z,102284.94
2023-04-05T14:47:10.542Z,102276.38
2023-04-05T14:49:12.422Z,102285.91
2023-04-05T14:51:14.168Z,102282.78
2023-04-05T14:53:17.478Z,102280.75
2023-04-05T14:55:19.528Z,102278.03
2023-04-05T14:57:21.322Z,102275.94
2023-04-05T14:59:23.343Z,102278.66
2023-04-05T15:01:25.696Z,102275.94
2023-04-05T15:03:27.561Z,102274.06
2023-04-05T15:05:29.438Z,102277.00
2023-04-05T15:07:31.684Z,102268.97
2023-04-05T15:09:35.350Z,102274.44
2023-04-05T15:11:37.654Z,102275.66
2023-04-05T15:13:39.374Z,102270.56
2023-04-05T15:15:40.945Z,102272.16
2023-04-05T15:17:42.477Z,102273.75
2023-04-05T15:19:44.393Z,102271.72
2023-04-05T15:21:46.260Z,102269.56
2023-04-05T15:23:48.073Z,102266.34
2023-04-05T15:25:51.461Z,102272.84
2023-04-05T15:27:53.488Z,102269.66
2023-04-05T15:29:55.080Z,102267.44
2023-04-05T15:31:56.722Z,102265.09
2023-04-05T15:33:58.754Z,102267.50
2023-04-05T15:36:00.547Z,102264.47
2023-04-05T15:38:02.659Z,102263.50
2023-04-05T15:40:05.267Z,102263.38
2023-04-05T15:42:10.733Z,102259.31
2023-04-05T15:44:12.658Z,102262.94
2023-04-05T15:46:14.511Z,102260.25
2023-04-05T15:48:16.364Z,102265.38
2023-04-05T15:50:18.194Z,102266.28
2023-04-05T15:52:20.084Z,102263.44
2023-04-05T15:54:21.914Z,102261.41
2023-04-05T15:56:23.723Z,102264.69
2023-04-05T15:58:26.780Z,102263.34
2023-04-05T16:00:28.699Z,102258.91
2023-04-05T16:02:30.410Z,102258.22
2023-04-05T16:04:32.524Z,102256.53
2023-04-05T16:06:34.612Z,102263.16
2023-04-05T16:08:36.476Z,102259.28
2023-04-05T16:10:38.045Z,102258.09
2023-04-05T16:12:39.693Z,102257.97
2023-04-05T16:14:42.769Z,102254.59
2023-04-05T16:16:52.968Z,102255.47
2023-04-05T16:18:57.347Z,102253.63
2023-04-05T16:20:58.954Z,102257.06
2023-04-05T16:23:00.790Z,102255.19
2023-04-05T16:25:02.680Z,102259.28
2023-04-05T16:27:04.557Z,102251.47
2023-04-05T16:29:06.153Z,102254.53
2023-04-05T16:31:09.090Z,102256.75
2023-04-05T16:33:12.217Z,102254.72
2023-04-05T16:35:13.897Z,102242.81
2023-04-05T16:37:15.683Z,102243.00
2023-04-05T16:39:17.231Z,102240.28
2023-04-05T16:41:18.880Z,102243.88
2023-04-05T16:43:20.438Z,102245.38
2023-04-05T16:45:22.259Z,102243.16
2023-04-05T16:47:26.100Z,102238.22
2023-04-05T16:49:28.157Z,102237.72
2023-04-05T16:51:29.781Z,102226.84
2023-04-05T16:53:32.197Z,102230.72
2023-04-05T16:55:33.904Z,102225.28
2023-04-05T16:57:35.960Z,102227.19
2023-04-05T16:59:37.664Z,102231.91
2023-04-05T17:01:39.647Z,102233.78
2023-04-05T17:03:42.801Z,102230.41
2023-04-05T17:05:44.577Z,102228.84
2023-04-05T17:07:46.443Z,102229.19
2023-04-05T17:09:48.339Z,102233.25
2023-04-05T17:11:51.302Z,102230.03
2023-04-05T17:13:52.856Z,102234.28
2023-04-05T17:15:54.937Z,102233.06
2023-04-05T17:17:56.857Z,102238.19
2023-04-05T17:20:00.207Z,102244.25
2023-04-05T17:22:02.409Z,102247.66
2023-04-05T17:24:04.518Z,102246.63
2023-04-05T17:26:06.761Z,102250.00
2023-04-05T17:28:08.778Z,102246.22
2023-04-05T17:30:13.918Z,102246.88
2023-04-05T17:32:15.803Z,102245.84
2023-04-05T17:34:17.616Z,102256.34
2023-04-05T17:36:21.116Z,102252.56
2023-04-05T17:38:22.956Z,102254.25
2023-04-05T17:40:24.579Z,102255.75
2023-04-05T17:42:26.211Z,102253.84
2023-04-05T17:44:28.380Z,102259.75
2023-04-05T17:46:40.234Z,102251.41
2023-04-05T17:48:44.594Z,102254.91
2023-04-05T17:50:46.618Z,102261.81
2023-04-05T17:52:49.467Z,102264.31
2023-04-05T17:54:51.022Z,102263.13
2023-04-05T17:56:53.111Z,102259.31
2023-04-05T17:58:55.024Z,102260.81
2023-04-05T18:00:56.781Z,102255.00
2023-04-05T18:02:58.483Z,102262.78
2023-04-05T18:05:00.322Z,102265.22
2023-04-05T18:07:01.930Z,102272.13
2023-04-05T18:09:05.349Z,102262.78
2023-04-05T18:11:07.166Z,102258.81
2023-04-05T18:13:08.814Z,102261.97
2023-04-05T18:15:10.974Z,102260.91
2023-04-05T18:17:12.572Z,102265.94
2023-04-05T18:19:14.594Z,102275.53
2023-04-05T18:21:16.188Z,102269.72
2023-04-05T18:23:17.813Z,102274.75
2023-04-05T18:25:21.553Z,102277.06
2023-04-05T18:27:23.333Z,102273.81
2023-04-05T18:29:24.975Z,102283.56
2023-04-05T18:31:27.179Z,102272.19
2023-04-05T18:33:28.802Z,102276.63
2023-04-05T18:35:30.812Z,102278.97
2023-04-05T18:37:32.513Z,102278.69
2023-04-05T18:39:35.819Z,102279.31
2023-04-05T18:41:39.388Z,102278.91
2023-04-05T18:43:41.160Z,102284.91
2023-04-05T18:45:43.020Z,102284.50
2023-04-05T18:47:45.102Z,102287.69
2023-04-05T18:49:46.722Z,102289.97
2023-04-05T18:51:48.581Z,102293.84
2023-04-05T18:53:50.422Z,102297.84
2023-04-05T18:55:52.790Z,102298.28
2023-04-05T18:57:55.986Z,102301.28
2023-04-05T18:59:57.728Z,102294.59
2023-04-05T19:01:59.536Z,102306.56
2023-04-05T19:04:01.263Z,102306.00
2023-04-05T19:06:04.788Z,102301.88
2023-04-05T19:08:06.355Z,102313.69
2023-04-05T19:10:09.226Z,102307.72
2023-04-05T19:12:11.021Z,102306.19
2023-04-05T19:14:14.163Z,102310.03
2023-04-05T19:16:15.811Z,102307.63
2023-04-05T19:18:18.291Z,102307.19
2023-04-05T19:20:20.131Z,102310.88
2023-04-05T19:22:21.918Z,102304.06
2023-04-05T19:24:24.312Z,102302.50
2023-04-05T19:26:25.901Z,102303.66
2023-04-05T19:28:27.669Z,102303.94
2023-04-05T19:30:30.684Z,102301.50
2023-04-05T19:32:32.220Z,102306.22
2023-04-05T19:34:34.204Z,102304.81
2023-04-05T19:36:36.907Z,102315.06
2023-04-05T19:38:40.185Z,102309.09
2023-04-05T19:40:42.555Z,102304.94
2023-04-05T19:42:44.826Z,102308.94
2023-04-05T19:44:49.729Z,102312.06
2023-04-05T19:46:53.755Z,102307.94
2023-04-05T19:48:56.114Z,102305.69
2023-04-05T19:51:01.056Z,102313.06
2023-04-05T19:53:02.993Z,102307.09
2023-04-05T19:55:26.262Z,102310.06
2023-04-05T19:57:28.493Z,102310.34
2023-04-05T19:59:33.018Z,102308.06
2023-04-05T20:01:36.417Z,102312.00
2023-04-05T20:03:41.070Z,102314.13
2023-04-05T20:06:14.131Z,102311.44
2023-04-05T20:08:16.299Z,102312.00
2023-04-05T20:10:18.109Z,102308.00
2023-04-05T20:12:20.057Z,102306.56
2023-04-05T20:14:28.162Z,102309.56
2023-04-05T20:16:30.828Z,102309.09
2023-04-05T20:18:33.254Z,102298.16
2023-04-05T20:20:36.746Z,102306.53
2023-04-05T20:22:39.160Z,102297.84
2023-04-05T20:24:40.971Z,102304.50
2023-04-05T20:26:43.283Z,102302.25
2023-04-05T20:28:51.145Z,102297.97
2023-04-05T20:30:54.545Z,102294.84
2023-04-05T20:32:56.201Z,102294.25
2023-04-05T20:34:57.734Z,102298.06
2023-04-05T20:37:02.158Z,102299.19
2023-04-05T20:39:06.063Z,102307.56
2023-04-05T20:41:08.935Z,102288.09
2023-04-05T20:43:10.799Z,102290.06
2023-04-05T20:45:13.189Z,102297.47
2023-04-05T20:47:14.945Z,102294.06
2023-04-05T20:49:16.790Z,102290.63
2023-04-05T20:51:18.839Z,102286.47
2023-04-05T20:53:22.025Z,102293.13
2023-04-05T20:55:24.275Z,102289.72
2023-04-05T20:57:26.285Z,102299.94
2023-04-05T20:59:27.953Z,102287.72
2023-04-05T21:01:29.797Z,102288.97
2023-04-05T21:03:32.873Z,102287.63
2023-04-05T21:05:34.532Z,102287.31
2023-04-05T21:07:36.085Z,102280.75
2023-04-05T21:09:39.684Z,102284.72
2023-04-05T21:11:41.269Z,102280.84
2023-04-05T21:13:42.871Z,102286.63
2023-04-05T21:15:44.619Z,102287.03
2023-04-05T21:17:46.260Z,102286.44
2023-04-05T21:19:48.189Z,102286.84
2023-04-05T21:21:50.324Z,102294.44
2023-04-05T21:23:51.797Z,102288.63
2023-04-05T21:25:55.482Z,102296.22
2023-04-05T21:27:58.167Z,102296.59
2023-04-05T21:29:59.990Z,102294.19
2023-04-05T21:32:01.529Z,102293.69
2023-04-05T21:34:03.085Z,102300.31
2023-04-05T21:36:05.241Z,102296.31
2023-04-05T21:38:07.116Z,102292.16
2023-04-05T21:40:09.666Z,102291.84
2023-04-05T21:42:13.019Z,102294.63
2023-04-05T21:44:14.927Z,102288.66
2023-04-05T21:46:17.467Z,102290.91
2023-04-05T21:48:20.640Z,102284.88
2023-04-05T21:50:23.289Z,102295.06
2023-04-05T21:52:24.905Z,102290.94
2023-04-05T21:54:26.450Z,102290.31
2023-04-05T21:56:28.046Z,102290.72
2023-04-05T21:58:30.923Z,102290.09
2023-04-05T22:00:33.227Z,102290.31
2023-04-05T22:02:35.048Z,102289.63
2023-04-05T22:04:36.869Z,102279.09
2023-04-05T22:06:38.429Z,102285.59
2023-04-05T22:08:40.305Z,102279.59
2023-04-05T22:10:42.314Z,102273.59
2023-04-05T22:12:44.133Z,102283.53
2023-04-05T22:14:47.537Z,102277.41
2023-04-05T22:16:49.199Z,102278.38
2023-04-05T22:18:50.943Z,102274.97
2023-04-05T22:20:52.585Z,102285.75
2023-04-05T22:22:54.933Z,102281.31
2023-04-05T22:24:56.538Z,102276.91
2023-04-05T22:26:58.555Z,102278.78
2023-04-05T22:29:01.740Z,102279.88
2023-04-05T22:31:05.022Z,102280.88
2023-04-05T22:33:06.870Z,102279.25
2023-04-05T22:35:09.557Z,102279.41
2023-04-05T22:37:11.425Z,102285.88
2023-04-05T22:39:13.064Z,102282.44
2023-04-05T22:41:14.636Z,102284.41
2023-04-05T22:43:16.263Z,102279.16
2023-04-05T22:45:18.283Z,102285.50
2023-04-05T22:47:21.395Z,102286.47
2023-04-05T22:49:23.672Z,102283.06
2023-04-05T22:51:25.490Z,102282.34
2023-04-05T22:53:27.092Z,102288.81
2023-04-05T22:55:29.145Z,102286.25
2023-04-05T22:57:30.702Z,102285.50
2023-04-05T22:59:32.377Z,102284.91
2023-04-05T23:01:34.445Z,102282.47
2023-04-05T23:03:37.438Z,102276.34
2023-04-05T23:05:39.046Z,102274.66
2023-04-05T23:07:40.948Z,102276.47
2023-04-05T23:09:42.809Z,102273.91
2023-04-05T23:11:44.370Z,102280.38
2023-04-05T23:13:46.000Z,102277.81
2023-04-05T23:15:48.027Z,102284.19
2023-04-05T23:17:49.810Z,102275.25
2023-04-05T23:19:53.301Z,102281.72
2023-04-05T23:21:55.106Z,102281.84
2023-04-05T23:23:56.968Z,102276.59
2023-04-05T23:25:58.822Z,102278.56
2023-04-05T23:28:00.635Z,102283.06